sensor_id;sensor_type;location;lat;lon;timestamp;P1;durP1;ratioP1;P2;durP2;ratioP2
53688;SDS011;39583;54.682;30.662;2024-03-08T05:32:43;42.65;;;11.13;;
53688;SDS011;39583;54.682;30.662;2024-03-08T05:35:15;51.22;;;13.68;;
53688;SDS011;39583;54.682;30.662;2024-03-08T05:37:44;20.60;;;7.93;;
53688;SDS011;39583;54.682;30.662;2024-03-08T05:40:11;14.68;;;5.65;;
53688;SDS011;39583;54.682;30.662;2024-03-08T05:42:45;12.32;;;5.43;;
53688;SDS011;39583;54.682;30.662;2024-03-08T05:45:20;4.90;;;1.70;;
53688;SDS011;39583;54.682;30.662;2024-03-08T05:47:48;7.75;;;2.22;;
53688;SDS011;39583;54.682;30.662;2024-03-08T05:50:18;6.93;;;2.47;;
53688;SDS011;39583;54.682;30.662;2024-03-08T05:52:46;7.95;;;2.20;;
53688;SDS011;39583;54.682;30.662;2024-03-08T05:55:17;3.20;;;1.88;;
53688;SDS011;39583;54.682;30.662;2024-03-08T05:58:02;5.72;;;2.75;;
53688;SDS011;39583;54.682;30.662;2024-03-08T06:00:31;4.88;;;2.17;;
53688;SDS011;39583;54.682;30.662;2024-03-08T06:02:58;6.60;;;2.53;;
53688;SDS011;39583;54.682;30.662;2024-03-08T06:05:26;3.72;;;1.52;;
53688;SDS011;39583;54.682;30.662;2024-03-08T06:07:53;10.43;;;2.08;;
53688;SDS011;39583;54.682;30.662;2024-03-08T06:10:21;5.90;;;1.98;;
53688;SDS011;39583;54.682;30.662;2024-03-08T06:12:49;4.78;;;1.60;;
53688;SDS011;39583;54.682;30.662;2024-03-08T06:15:17;5.45;;;2.03;;
53688;SDS011;39583;54.682;30.662;2024-03-08T06:17:55;3.90;;;2.10;;
53688;SDS011;39583;54.682;30.662;2024-03-08T06:20:23;8.45;;;2.13;;
53688;SDS011;39583;54.682;30.662;2024-03-08T06:22:53;4.68;;;1.90;;
53688;SDS011;39583;54.682;30.662;2024-03-08T06:25:21;7.47;;;2.50;;
53688;SDS011;39583;54.682;30.662;2024-03-08T06:27:49;7.97;;;2.60;;
53688;SDS011;39583;54.682;30.662;2024-03-08T06:30:16;5.80;;;2.60;;
53688;SDS011;39583;54.682;30.662;2024-03-08T06:32:44;8.68;;;3.35;;
53688;SDS011;39583;54.682;30.662;2024-03-08T06:35:12;9.20;;;3.53;;
53688;SDS011;39583;54.682;30.662;2024-03-08T06:37:43;5.90;;;2.53;;
53688;SDS011;39583;54.682;30.662;2024-03-08T06:40:11;6.85;;;3.30;;
53688;SDS011;39583;54.682;30.662;2024-03-08T06:42:41;5.93;;;2.55;;
53688;SDS011;39583;54.682;30.662;2024-03-08T06:45:08;7.10;;;2.80;;
53688;SDS011;39583;54.682;30.662;2024-03-08T06:47:37;9.35;;;2.85;;
53688;SDS011;39583;54.682;30.662;2024-03-08T06:50:05;4.80;;;2.58;;
53688;SDS011;39583;54.682;30.662;2024-03-08T06:52:33;8.55;;;3.00;;
53688;SDS011;39583;54.682;30.662;2024-03-08T06:55:01;10.13;;;3.78;;
53688;SDS011;39583;54.682;30.662;2024-03-08T06:57:29;10.00;;;3.58;;
53688;SDS011;39583;54.682;30.662;2024-03-08T06:59:56;5.03;;;3.45;;
53688;SDS011;39583;54.682;30.662;2024-03-08T07:02:24;10.18;;;2.85;;
53688;SDS011;39583;54.682;30.662;2024-03-08T07:04:52;12.30;;;3.33;;
53688;SDS011;39583;54.682;30.662;2024-03-08T07:07:20;13.95;;;3.22;;
53688;SDS011;39583;54.682;30.662;2024-03-08T07:09:47;7.50;;;2.90;;
53688;SDS011;39583;54.682;30.662;2024-03-08T07:12:16;14.27;;;3.15;;
53688;SDS011;39583;54.682;30.662;2024-03-08T07:14:44;16.98;;;4.32;;
53688;SDS011;39583;54.682;30.662;2024-03-08T07:17:12;19.38;;;3.47;;
53688;SDS011;39583;54.682;30.662;2024-03-08T07:19:40;14.65;;;4.30;;
53688;SDS011;39583;54.682;30.662;2024-03-08T07:22:09;19.20;;;5.60;;
53688;SDS011;39583;54.682;30.662;2024-03-08T07:24:37;24.20;;;4.80;;
53688;SDS011;39583;54.682;30.662;2024-03-08T07:27:38;20.25;;;2.95;;
53688;SDS011;39583;54.682;30.662;2024-03-08T07:30:05;31.67;;;4.40;;
53688;SDS011;39583;54.682;30.662;2024-03-08T07:32:34;16.90;;;4.13;;
53688;SDS011;39583;54.682;30.662;2024-03-08T07:35:02;12.75;;;3.05;;
53688;SDS011;39583;54.682;30.662;2024-03-08T07:37:31;11.98;;;3.75;;
53688;SDS011;39583;54.682;30.662;2024-03-08T07:39:59;19.58;;;3.80;;
53688;SDS011;39583;54.682;30.662;2024-03-08T07:42:27;17.85;;;4.15;;
53688;SDS011;39583;54.682;30.662;2024-03-08T07:44:55;13.60;;;3.72;;
53688;SDS011;39583;54.682;30.662;2024-03-08T07:47:23;14.55;;;3.25;;
53688;SDS011;39583;54.682;30.662;2024-03-08T07:49:51;17.63;;;3.40;;
53688;SDS011;39583;54.682;30.662;2024-03-08T07:52:19;12.98;;;3.08;;
53688;SDS011;39583;54.682;30.662;2024-03-08T07:54:46;15.95;;;3.75;;
53688;SDS011;39583;54.682;30.662;2024-03-08T07:57:14;13.55;;;3.05;;
53688;SDS011;39583;54.682;30.662;2024-03-08T07:59:41;12.50;;;3.80;;
53688;SDS011;39583;54.682;30.662;2024-03-08T08:02:09;24.60;;;3.17;;
53688;SDS011;39583;54.682;30.662;2024-03-08T08:04:37;14.52;;;2.90;;
53688;SDS011;39583;54.682;30.662;2024-03-08T08:07:06;12.13;;;3.03;;
53688;SDS011;39583;54.682;30.662;2024-03-08T08:09:34;13.00;;;3.40;;
53688;SDS011;39583;54.682;30.662;2024-03-08T08:12:02;4.80;;;2.50;;
53688;SDS011;39583;54.682;30.662;2024-03-08T08:14:30;7.70;;;2.08;;
53688;SDS011;39583;54.682;30.662;2024-03-08T08:16:58;12.70;;;3.88;;
53688;SDS011;39583;54.682;30.662;2024-03-08T08:19:31;11.50;;;3.00;;
53688;SDS011;39583;54.682;30.662;2024-03-08T08:21:59;13.60;;;3.08;;
53688;SDS011;39583;54.682;30.662;2024-03-08T08:24:26;19.20;;;2.47;;
53688;SDS011;39583;54.682;30.662;2024-03-08T08:26:54;8.77;;;2.85;;
53688;SDS011;39583;54.682;30.662;2024-03-08T08:29:22;9.70;;;2.63;;
53688;SDS011;39583;54.682;30.662;2024-03-08T08:31:50;16.13;;;3.83;;
53688;SDS011;39583;54.682;30.662;2024-03-08T08:34:18;7.38;;;2.55;;
53688;SDS011;39583;54.682;30.662;2024-03-08T08:36:46;13.38;;;3.40;;
53688;SDS011;39583;54.682;30.662;2024-03-08T08:39:13;20.42;;;3.47;;
53688;SDS011;39583;54.682;30.662;2024-03-08T08:41:41;11.15;;;3.15;;
53688;SDS011;39583;54.682;30.662;2024-03-08T08:44:09;9.55;;;2.95;;
53688;SDS011;39583;54.682;30.662;2024-03-08T08:49:10;7.97;;;1.88;;
53688;SDS011;39583;54.682;30.662;2024-03-08T08:51:38;8.75;;;2.40;;
53688;SDS011;39583;54.682;30.662;2024-03-08T08:54:05;11.60;;;3.28;;
53688;SDS011;39583;54.682;30.662;2024-03-08T08:56:39;12.75;;;3.28;;
53688;SDS011;39583;54.682;30.662;2024-03-08T08:59:07;10.48;;;2.80;;
53688;SDS011;39583;54.682;30.662;2024-03-08T09:01:34;12.60;;;2.85;;
53688;SDS011;39583;54.682;30.662;2024-03-08T09:04:02;14.43;;;3.55;;
53688;SDS011;39583;54.682;30.662;2024-03-08T09:06:30;8.80;;;3.08;;
53688;SDS011;39583;54.682;30.662;2024-03-08T09:08:58;7.85;;;2.88;;
53688;SDS011;39583;54.682;30.662;2024-03-08T09:11:30;10.70;;;3.40;;
53688;SDS011;39583;54.682;30.662;2024-03-08T09:13:58;7.05;;;3.03;;
53688;SDS011;39583;54.682;30.662;2024-03-08T09:16:26;13.73;;;3.05;;
53688;SDS011;39583;54.682;30.662;2024-03-08T09:18:53;12.20;;;3.58;;
53688;SDS011;39583;54.682;30.662;2024-03-08T09:21:21;15.70;;;3.85;;
53688;SDS011;39583;54.682;30.662;2024-03-08T09:23:49;9.75;;;2.40;;
53688;SDS011;39583;54.682;30.662;2024-03-08T09:26:18;10.20;;;2.70;;
53688;SDS011;39583;54.682;30.662;2024-03-08T09:28:55;10.27;;;2.97;;
53688;SDS011;39583;54.682;30.662;2024-03-08T09:31:23;12.73;;;2.97;;
53688;SDS011;39583;54.682;30.662;2024-03-08T09:33:50;12.13;;;3.85;;
53688;SDS011;39583;54.682;30.662;2024-03-08T09:36:18;13.07;;;3.40;;
53688;SDS011;39583;54.682;30.662;2024-03-08T09:38:46;13.50;;;4.20;;
53688;SDS011;39583;54.682;30.662;2024-03-08T09:41:14;20.13;;;3.45;;
53688;SDS011;39583;54.682;30.662;2024-03-08T09:43:42;7.78;;;2.75;;
53688;SDS011;39583;54.682;30.662;2024-03-08T09:46:10;9.85;;;3.05;;
53688;SDS011;39583;54.682;30.662;2024-03-08T09:48:38;8.73;;;3.05;;
53688;SDS011;39583;54.682;30.662;2024-03-08T09:51:08;12.73;;;3.22;;
53688;SDS011;39583;54.682;30.662;2024-03-08T09:53:41;12.00;;;3.47;;
53688;SDS011;39583;54.682;30.662;2024-03-08T09:56:09;14.15;;;3.30;;
53688;SDS011;39583;54.682;30.662;2024-03-08T09:58:39;10.95;;;3.15;;
53688;SDS011;39583;54.682;30.662;2024-03-08T10:01:27;8.93;;;2.95;;
53688;SDS011;39583;54.682;30.662;2024-03-08T10:03:54;12.23;;;3.15;;
53688;SDS011;39583;54.682;30.662;2024-03-08T10:06:24;12.90;;;3.20;;
53688;SDS011;39583;54.682;30.662;2024-03-08T10:08:53;11.93;;;3.53;;
53688;SDS011;39583;54.682;30.662;2024-03-08T10:11:21;16.20;;;3.70;;
53688;SDS011;39583;54.682;30.662;2024-03-08T10:13:49;10.02;;;3.58;;
53688;SDS011;39583;54.682;30.662;2024-03-08T10:16:17;8.15;;;2.83;;
53688;SDS011;39583;54.682;30.662;2024-03-08T10:18:45;12.98;;;2.85;;
53688;SDS011;39583;54.682;30.662;2024-03-08T10:21:13;18.40;;;3.83;;
53688;SDS011;39583;54.682;30.662;2024-03-08T10:23:42;10.55;;;3.70;;
53688;SDS011;39583;54.682;30.662;2024-03-08T10:26:13;14.05;;;2.88;;
53688;SDS011;39583;54.682;30.662;2024-03-08T10:28:44;10.70;;;3.42;;
53688;SDS011;39583;54.682;30.662;2024-03-08T10:31:17;10.52;;;2.80;;
53688;SDS011;39583;54.682;30.662;2024-03-08T10:33:47;12.75;;;3.42;;
53688;SDS011;39583;54.682;30.662;2024-03-08T10:36:15;12.00;;;2.80;;
53688;SDS011;39583;54.682;30.662;2024-03-08T10:38:43;7.93;;;2.90;;
53688;SDS011;39583;54.682;30.662;2024-03-08T10:41:15;6.65;;;2.92;;
53688;SDS011;39583;54.682;30.662;2024-03-08T10:46:33;14.93;;;3.55;;
53688;SDS011;39583;54.682;30.662;2024-03-08T10:49:15;6.80;;;2.65;;
53688;SDS011;39583;54.682;30.662;2024-03-08T10:51:44;11.48;;;2.67;;
53688;SDS011;39583;54.682;30.662;2024-03-08T10:54:14;9.68;;;2.60;;
53688;SDS011;39583;54.682;30.662;2024-03-08T10:56:42;9.40;;;2.90;;
53688;SDS011;39583;54.682;30.662;2024-03-08T10:59:10;7.82;;;3.30;;
53688;SDS011;39583;54.682;30.662;2024-03-08T11:01:39;15.15;;;2.90;;
53688;SDS011;39583;54.682;30.662;2024-03-08T11:04:07;16.10;;;2.97;;
53688;SDS011;39583;54.682;30.662;2024-03-08T11:09:22;10.63;;;3.63;;
53688;SDS011;39583;54.682;30.662;2024-03-08T11:15:01;12.25;;;2.78;;
53688;SDS011;39583;54.682;30.662;2024-03-08T11:20:16;12.52;;;2.83;;
53688;SDS011;39583;54.682;30.662;2024-03-08T11:25:32;12.45;;;2.67;;
53688;SDS011;39583;54.682;30.662;2024-03-08T11:28:14;9.07;;;2.80;;
53688;SDS011;39583;54.682;30.662;2024-03-08T11:33:27;10.95;;;5.50;;
53688;SDS011;39583;54.682;30.662;2024-03-08T11:36:12;11.52;;;3.55;;
53688;SDS011;39583;54.682;30.662;2024-03-08T11:38:49;9.45;;;2.97;;
53688;SDS011;39583;54.682;30.662;2024-03-08T11:41:23;11.40;;;2.75;;
53688;SDS011;39583;54.682;30.662;2024-03-08T11:44:04;14.63;;;3.78;;
53688;SDS011;39583;54.682;30.662;2024-03-08T11:46:33;13.43;;;3.40;;
53688;SDS011;39583;54.682;30.662;2024-03-08T11:49:01;12.32;;;2.53;;
53688;SDS011;39583;54.682;30.662;2024-03-08T11:51:30;6.43;;;2.17;;
53688;SDS011;39583;54.682;30.662;2024-03-08T11:53:59;6.68;;;2.55;;
53688;SDS011;39583;54.682;30.662;2024-03-08T11:56:27;9.10;;;3.05;;
53688;SDS011;39583;54.682;30.662;2024-03-08T11:58:56;6.57;;;2.38;;
53688;SDS011;39583;54.682;30.662;2024-03-08T12:01:31;6.70;;;2.38;;
53688;SDS011;39583;54.682;30.662;2024-03-08T12:03:59;4.40;;;2.33;;
53688;SDS011;39583;54.682;30.662;2024-03-08T12:06:36;6.63;;;2.88;;
53688;SDS011;39583;54.682;30.662;2024-03-08T12:09:11;8.10;;;2.83;;
53688;SDS011;39583;54.682;30.662;2024-03-08T12:11:40;4.97;;;2.03;;
53688;SDS011;39583;54.682;30.662;2024-03-08T12:14:08;4.88;;;2.33;;
53688;SDS011;39583;54.682;30.662;2024-03-08T12:16:38;4.13;;;2.10;;
53688;SDS011;39583;54.682;30.662;2024-03-08T12:19:06;7.68;;;3.05;;
53688;SDS011;39583;54.682;30.662;2024-03-08T12:21:34;35.03;;;13.13;;
53688;SDS011;39583;54.682;30.662;2024-03-08T12:24:06;6.03;;;2.58;;
53688;SDS011;39583;54.682;30.662;2024-03-08T12:26:37;4.78;;;2.75;;
53688;SDS011;39583;54.682;30.662;2024-03-08T12:29:16;12.93;;;5.43;;
53688;SDS011;39583;54.682;30.662;2024-03-08T12:31:56;5.45;;;2.92;;
53688;SDS011;39583;54.682;30.662;2024-03-08T12:34:28;5.30;;;2.55;;
53688;SDS011;39583;54.682;30.662;2024-03-08T12:36:56;7.40;;;2.33;;
53688;SDS011;39583;54.682;30.662;2024-03-08T12:39:24;4.60;;;2.28;;
53688;SDS011;39583;54.682;30.662;2024-03-08T12:42:13;10.95;;;4.95;;
53688;SDS011;39583;54.682;30.662;2024-03-08T12:44:41;7.32;;;3.80;;
53688;SDS011;39583;54.682;30.662;2024-03-08T12:47:10;7.90;;;2.70;;
53688;SDS011;39583;54.682;30.662;2024-03-08T12:49:45;5.43;;;2.60;;
53688;SDS011;39583;54.682;30.662;2024-03-08T12:52:13;10.13;;;6.10;;
53688;SDS011;39583;54.682;30.662;2024-03-08T12:54:41;6.43;;;2.80;;
53688;SDS011;39583;54.682;30.662;2024-03-08T12:57:10;6.38;;;2.30;;
53688;SDS011;39583;54.682;30.662;2024-03-08T12:59:37;5.05;;;2.20;;
53688;SDS011;39583;54.682;30.662;2024-03-08T13:02:05;3.95;;;1.92;;
53688;SDS011;39583;54.682;30.662;2024-03-08T13:04:38;4.03;;;2.30;;
53688;SDS011;39583;54.682;30.662;2024-03-08T13:07:06;6.10;;;2.72;;
53688;SDS011;39583;54.682;30.662;2024-03-08T13:09:33;6.20;;;2.15;;
53688;SDS011;39583;54.682;30.662;2024-03-08T13:12:04;3.35;;;1.98;;
53688;SDS011;39583;54.682;30.662;2024-03-08T13:14:33;8.10;;;2.20;;
53688;SDS011;39583;54.682;30.662;2024-03-08T13:17:02;3.75;;;1.98;;
53688;SDS011;39583;54.682;30.662;2024-03-08T13:19:31;4.45;;;2.33;;
53688;SDS011;39583;54.682;30.662;2024-03-08T13:21:59;6.47;;;2.40;;
53688;SDS011;39583;54.682;30.662;2024-03-08T13:24:26;7.28;;;2.35;;
53688;SDS011;39583;54.682;30.662;2024-03-08T13:26:54;6.38;;;2.65;;
53688;SDS011;39583;54.682;30.662;2024-03-08T13:29:22;5.97;;;2.38;;
53688;SDS011;39583;54.682;30.662;2024-03-08T13:31:50;4.07;;;1.83;;
53688;SDS011;39583;54.682;30.662;2024-03-08T13:34:19;4.75;;;2.40;;
53688;SDS011;39583;54.682;30.662;2024-03-08T13:36:55;7.15;;;3.10;;
53688;SDS011;39583;54.682;30.662;2024-03-08T13:39:28;6.72;;;2.00;;
53688;SDS011;39583;54.682;30.662;2024-03-08T13:41:56;5.05;;;2.80;;
53688;SDS011;39583;54.682;30.662;2024-03-08T13:44:24;4.70;;;2.60;;
53688;SDS011;39583;54.682;30.662;2024-03-08T13:46:52;5.30;;;2.65;;
53688;SDS011;39583;54.682;30.662;2024-03-08T13:49:20;4.88;;;2.60;;
53688;SDS011;39583;54.682;30.662;2024-03-08T13:51:48;4.10;;;2.03;;
53688;SDS011;39583;54.682;30.662;2024-03-08T13:54:16;7.47;;;3.50;;
53688;SDS011;39583;54.682;30.662;2024-03-08T13:56:44;8.00;;;2.85;;
53688;SDS011;39583;54.682;30.662;2024-03-08T13:59:13;6.55;;;2.97;;
53688;SDS011;39583;54.682;30.662;2024-03-08T14:01:40;6.57;;;3.70;;
53688;SDS011;39583;54.682;30.662;2024-03-08T14:04:12;5.95;;;2.75;;
53688;SDS011;39583;54.682;30.662;2024-03-08T14:06:43;6.30;;;2.80;;
53688;SDS011;39583;54.682;30.662;2024-03-08T14:09:14;4.97;;;2.67;;
53688;SDS011;39583;54.682;30.662;2024-03-08T14:11:44;7.00;;;2.00;;
53688;SDS011;39583;54.682;30.662;2024-03-08T14:14:12;4.05;;;2.20;;
53688;SDS011;39583;54.682;30.662;2024-03-08T14:16:39;5.13;;;3.08;;
53688;SDS011;39583;54.682;30.662;2024-03-08T14:19:07;5.05;;;2.88;;
53688;SDS011;39583;54.682;30.662;2024-03-08T14:21:37;6.65;;;3.25;;
53688;SDS011;39583;54.682;30.662;2024-03-08T14:24:06;8.65;;;2.65;;
53688;SDS011;39583;54.682;30.662;2024-03-08T14:26:34;4.35;;;2.50;;
53688;SDS011;39583;54.682;30.662;2024-03-08T14:29:03;4.70;;;2.67;;
53688;SDS011;39583;54.682;30.662;2024-03-08T14:31:32;6.63;;;2.70;;
53688;SDS011;39583;54.682;30.662;2024-03-08T14:34:01;4.20;;;2.13;;
53688;SDS011;39583;54.682;30.662;2024-03-08T14:36:30;5.82;;;2.70;;
53688;SDS011;39583;54.682;30.662;2024-03-08T14:38:58;7.38;;;3.78;;
53688;SDS011;39583;54.682;30.662;2024-03-08T14:41:26;7.57;;;2.90;;
53688;SDS011;39583;54.682;30.662;2024-03-08T14:43:53;5.85;;;2.95;;
53688;SDS011;39583;54.682;30.662;2024-03-08T14:46:21;7.20;;;3.22;;
53688;SDS011;39583;54.682;30.662;2024-03-08T14:48:50;8.30;;;3.60;;
53688;SDS011;39583;54.682;30.662;2024-03-08T14:51:19;4.55;;;2.80;;
53688;SDS011;39583;54.682;30.662;2024-03-08T14:53:53;6.50;;;3.17;;
53688;SDS011;39583;54.682;30.662;2024-03-08T14:56:21;8.20;;;4.05;;
53688;SDS011;39583;54.682;30.662;2024-03-08T14:58:50;4.88;;;2.63;;
53688;SDS011;39583;54.682;30.662;2024-03-08T15:01:19;6.75;;;3.00;;
53688;SDS011;39583;54.682;30.662;2024-03-08T15:03:51;6.32;;;3.17;;
53688;SDS011;39583;54.682;30.662;2024-03-08T15:06:19;4.82;;;2.92;;
53688;SDS011;39583;54.682;30.662;2024-03-08T15:08:48;10.98;;;4.30;;
53688;SDS011;39583;54.682;30.662;2024-03-08T15:11:15;13.70;;;5.00;;
53688;SDS011;39583;54.682;30.662;2024-03-08T15:13:49;5.88;;;3.28;;
53688;SDS011;39583;54.682;30.662;2024-03-08T15:16:20;8.98;;;4.30;;
53688;SDS011;39583;54.682;30.662;2024-03-08T15:18:50;11.85;;;4.68;;
53688;SDS011;39583;54.682;30.662;2024-03-08T15:21:20;10.73;;;4.82;;
53688;SDS011;39583;54.682;30.662;2024-03-08T15:23:49;7.47;;;4.15;;
53688;SDS011;39583;54.682;30.662;2024-03-08T15:26:19;9.95;;;4.82;;
53688;SDS011;39583;54.682;30.662;2024-03-08T15:28:47;12.50;;;5.05;;
53688;SDS011;39583;54.682;30.662;2024-03-08T15:31:19;16.87;;;5.67;;
53688;SDS011;39583;54.682;30.662;2024-03-08T15:33:48;11.00;;;5.45;;
53688;SDS011;39583;54.682;30.662;2024-03-08T15:36:18;9.18;;;4.80;;
53688;SDS011;39583;54.682;30.662;2024-03-08T15:38:48;11.65;;;5.93;;
53688;SDS011;39583;54.682;30.662;2024-03-08T15:41:19;14.43;;;6.55;;
53688;SDS011;39583;54.682;30.662;2024-03-08T15:43:48;13.30;;;6.05;;
53688;SDS011;39583;54.682;30.662;2024-03-08T15:46:17;16.13;;;7.07;;
53688;SDS011;39583;54.682;30.662;2024-03-08T15:48:50;13.07;;;6.35;;
53688;SDS011;39583;54.682;30.662;2024-03-08T15:51:19;13.70;;;6.88;;
53688;SDS011;39583;54.682;30.662;2024-03-08T15:53:47;13.30;;;6.80;;
53688;SDS011;39583;54.682;30.662;2024-03-08T15:56:20;13.35;;;5.63;;
53688;SDS011;39583;54.682;30.662;2024-03-08T15:58:49;10.38;;;5.88;;
53688;SDS011;39583;54.682;30.662;2024-03-08T16:01:21;13.57;;;5.38;;
53688;SDS011;39583;54.682;30.662;2024-03-08T16:03:50;12.70;;;5.18;;
53688;SDS011;39583;54.682;30.662;2024-03-08T16:06:18;12.45;;;6.13;;
53688;SDS011;39583;54.682;30.662;2024-03-08T16:08:49;12.77;;;5.50;;
53688;SDS011;39583;54.682;30.662;2024-03-08T16:11:17;12.23;;;5.47;;
53688;SDS011;39583;54.682;30.662;2024-03-08T16:13:46;13.88;;;6.18;;
53688;SDS011;39583;54.682;30.662;2024-03-08T16:16:13;12.85;;;5.95;;
53688;SDS011;39583;54.682;30.662;2024-03-08T16:18:42;16.85;;;6.68;;
53688;SDS011;39583;54.682;30.662;2024-03-08T16:21:09;11.43;;;6.43;;
53688;SDS011;39583;54.682;30.662;2024-03-08T16:23:37;14.35;;;6.07;;
53688;SDS011;39583;54.682;30.662;2024-03-08T16:26:05;15.55;;;6.68;;
53688;SDS011;39583;54.682;30.662;2024-03-08T16:28:33;14.20;;;5.88;;
53688;SDS011;39583;54.682;30.662;2024-03-08T16:31:09;11.52;;;5.53;;
53688;SDS011;39583;54.682;30.662;2024-03-08T16:33:38;14.65;;;5.85;;
53688;SDS011;39583;54.682;30.662;2024-03-08T16:36:07;15.60;;;7.00;;
53688;SDS011;39583;54.682;30.662;2024-03-08T16:38:34;13.60;;;6.70;;
53688;SDS011;39583;54.682;30.662;2024-03-08T16:41:04;10.73;;;4.60;;
53688;SDS011;39583;54.682;30.662;2024-03-08T16:43:33;17.50;;;6.78;;
53688;SDS011;39583;54.682;30.662;2024-03-08T16:46:01;10.02;;;5.07;;
53688;SDS011;39583;54.682;30.662;2024-03-08T16:48:31;11.35;;;5.68;;
53688;SDS011;39583;54.682;30.662;2024-03-08T16:50:59;10.48;;;5.47;;
53688;SDS011;39583;54.682;30.662;2024-03-08T16:53:27;10.75;;;4.00;;
53688;SDS011;39583;54.682;30.662;2024-03-08T16:55:55;12.77;;;5.80;;
53688;SDS011;39583;54.682;30.662;2024-03-08T16:58:24;12.82;;;6.80;;
53688;SDS011;39583;54.682;30.662;2024-03-08T17:00:52;11.63;;;4.30;;
53688;SDS011;39583;54.682;30.662;2024-03-08T17:03:20;16.08;;;6.03;;
53688;SDS011;39583;54.682;30.662;2024-03-08T17:05:48;10.32;;;5.15;;
53688;SDS011;39583;54.682;30.662;2024-03-08T17:08:22;13.35;;;5.75;;
53688;SDS011;39583;54.682;30.662;2024-03-08T17:10:50;10.93;;;5.03;;
53688;SDS011;39583;54.682;30.662;2024-03-08T17:13:18;11.95;;;4.70;;
53688;SDS011;39583;54.682;30.662;2024-03-08T17:15:47;11.43;;;4.32;;
53688;SDS011;39583;54.682;30.662;2024-03-08T17:18:16;7.13;;;2.90;;
53688;SDS011;39583;54.682;30.662;2024-03-08T17:20:44;9.50;;;4.82;;
53688;SDS011;39583;54.682;30.662;2024-03-08T17:23:12;13.20;;;5.90;;
53688;SDS011;39583;54.682;30.662;2024-03-08T17:25:42;12.63;;;5.30;;
53688;SDS011;39583;54.682;30.662;2024-03-08T17:28:11;14.68;;;5.95;;
53688;SDS011;39583;54.682;30.662;2024-03-08T17:30:39;12.77;;;5.25;;
53688;SDS011;39583;54.682;30.662;2024-03-08T17:33:11;10.73;;;3.90;;
53688;SDS011;39583;54.682;30.662;2024-03-08T17:38:12;11.55;;;5.30;;
53688;SDS011;39583;54.682;30.662;2024-03-08T17:40:40;13.30;;;4.90;;
53688;SDS011;39583;54.682;30.662;2024-03-08T17:43:11;12.43;;;5.00;;
53688;SDS011;39583;54.682;30.662;2024-03-08T17:45:41;13.45;;;5.32;;
53688;SDS011;39583;54.682;30.662;2024-03-08T17:50:45;14.38;;;5.80;;
53688;SDS011;39583;54.682;30.662;2024-03-08T17:53:17;9.20;;;4.65;;
53688;SDS011;39583;54.682;30.662;2024-03-08T17:55:46;7.85;;;3.22;;
53688;SDS011;39583;54.682;30.662;2024-03-08T17:58:18;9.02;;;4.38;;
53688;SDS011;39583;54.682;30.662;2024-03-08T18:00:47;14.40;;;5.63;;
53688;SDS011;39583;54.682;30.662;2024-03-08T18:03:19;8.02;;;3.70;;
53688;SDS011;39583;54.682;30.662;2024-03-08T18:05:56;11.85;;;5.55;;
53688;SDS011;39583;54.682;30.662;2024-03-08T18:08:24;10.95;;;4.50;;
53688;SDS011;39583;54.682;30.662;2024-03-08T18:10:52;7.65;;;3.60;;
53688;SDS011;39583;54.682;30.662;2024-03-08T18:13:20;15.52;;;5.85;;
53688;SDS011;39583;54.682;30.662;2024-03-08T18:15:48;9.15;;;4.32;;
53688;SDS011;39583;54.682;30.662;2024-03-08T18:18:16;9.13;;;3.83;;
53688;SDS011;39583;54.682;30.662;2024-03-08T18:20:45;8.32;;;3.75;;
53688;SDS011;39583;54.682;30.662;2024-03-08T18:23:17;10.75;;;4.70;;
53688;SDS011;39583;54.682;30.662;2024-03-08T18:25:49;10.50;;;4.53;;
53688;SDS011;39583;54.682;30.662;2024-03-08T18:28:17;11.32;;;4.55;;
53688;SDS011;39583;54.682;30.662;2024-03-08T18:30:46;11.82;;;4.35;;
53688;SDS011;39583;54.682;30.662;2024-03-08T18:33:16;12.27;;;3.58;;
53688;SDS011;39583;54.682;30.662;2024-03-08T18:35:46;8.63;;;4.03;;
53688;SDS011;39583;54.682;30.662;2024-03-08T18:38:15;10.52;;;4.30;;
53688;SDS011;39583;54.682;30.662;2024-03-08T18:40:47;9.57;;;3.95;;
53688;SDS011;39583;54.682;30.662;2024-03-08T18:43:15;7.82;;;3.30;;
53688;SDS011;39583;54.682;30.662;2024-03-08T18:45:44;8.55;;;3.45;;
53688;SDS011;39583;54.682;30.662;2024-03-08T18:48:13;8.50;;;3.15;;
53688;SDS011;39583;54.682;30.662;2024-03-08T18:50:41;7.68;;;2.63;;
53688;SDS011;39583;54.682;30.662;2024-03-08T18:53:12;4.53;;;2.20;;
53688;SDS011;39583;54.682;30.662;2024-03-08T18:55:42;6.68;;;3.10;;
53688;SDS011;39583;54.682;30.662;2024-03-08T18:58:13;9.40;;;3.45;;
53688;SDS011;39583;54.682;30.662;2024-03-08T19:00:52;5.55;;;2.80;;
53688;SDS011;39583;54.682;30.662;2024-03-08T19:03:21;7.80;;;3.60;;
53688;SDS011;39583;54.682;30.662;2024-03-08T19:05:49;5.00;;;2.25;;
53688;SDS011;39583;54.682;30.662;2024-03-08T19:08:18;5.47;;;2.30;;
53688;SDS011;39583;54.682;30.662;2024-03-08T19:10:46;7.20;;;1.70;;
53688;SDS011;39583;54.682;30.662;2024-03-08T19:13:14;8.35;;;3.55;;
53688;SDS011;39583;54.682;30.662;2024-03-08T19:15:43;4.78;;;2.25;;
53688;SDS011;39583;54.682;30.662;2024-03-08T19:18:12;6.65;;;2.33;;
53688;SDS011;39583;54.682;30.662;2024-03-08T19:20:41;5.45;;;2.63;;
53688;SDS011;39583;54.682;30.662;2024-03-08T19:23:10;6.65;;;2.97;;
53688;SDS011;39583;54.682;30.662;2024-03-08T19:25:39;7.28;;;3.63;;
53688;SDS011;39583;54.682;30.662;2024-03-08T19:28:12;5.72;;;2.20;;
53688;SDS011;39583;54.682;30.662;2024-03-08T19:30:42;9.98;;;3.22;;
53688;SDS011;39583;54.682;30.662;2024-03-08T19:33:09;5.15;;;2.65;;
53688;SDS011;39583;54.682;30.662;2024-03-08T19:35:41;5.10;;;2.73;;
53688;SDS011;39583;54.682;30.662;2024-03-08T19:38:09;7.93;;;3.25;;
53688;SDS011;39583;54.682;30.662;2024-03-08T19:40:43;6.00;;;3.08;;
